sensor_id;sensor_type;location;lat;lon;timestamp;P1;durP1;ratioP1;P2;durP2;ratioP2
50363;SDS011;36272;59.400;17.982;2023-07-24T00:03:45;5.00;;;3.03;;
50363;SDS011;36272;59.400;17.982;2023-07-24T00:08:47;7.28;;;3.05;;
50363;SDS011;36272;59.400;17.982;2023-07-24T00:13:49;5.22;;;3.00;;
50363;SDS011;36272;59.400;17.982;2023-07-24T00:18:50;9.23;;;3.40;;
50363;SDS011;36272;59.400;17.982;2023-07-24T00:23:52;5.75;;;3.17;;
50363;SDS011;36272;59.400;17.982;2023-07-24T00:28:53;6.03;;;2.92;;
50363;SDS011;36272;59.400;17.982;2023-07-24T00:33:55;4.57;;;3.00;;
50363;SDS011;36272;59.400;17.982;2023-07-24T00:38:57;7.00;;;3.58;;
50363;SDS011;36272;59.400;17.982;2023-07-24T00:43:58;7.60;;;3.28;;
50363;SDS011;36272;59.400;17.982;2023-07-24T00:49:00;7.07;;;3.25;;
50363;SDS011;36272;59.400;17.982;2023-07-24T00:54:03;10.30;;;3.78;;
50363;SDS011;36272;59.400;17.982;2023-07-24T00:59:07;5.88;;;3.70;;
50363;SDS011;36272;59.400;17.982;2023-07-24T01:04:08;6.75;;;3.75;;
50363;SDS011;36272;59.400;17.982;2023-07-24T01:09:10;6.75;;;2.97;;
50363;SDS011;36272;59.400;17.982;2023-07-24T01:19:42;7.53;;;3.45;;
50363;SDS011;36272;59.400;17.982;2023-07-24T01:24:52;4.68;;;3.22;;
50363;SDS011;36272;59.400;17.982;2023-07-24T01:30:03;9.23;;;3.27;;
50363;SDS011;36272;59.400;17.982;2023-07-24T01:35:05;8.25;;;3.63;;
50363;SDS011;36272;59.400;17.982;2023-07-24T01:40:07;5.90;;;3.28;;
50363;SDS011;36272;59.400;17.982;2023-07-24T01:45:10;9.13;;;3.40;;
50363;SDS011;36272;59.400;17.982;2023-07-24T01:50:12;6.80;;;3.20;;
50363;SDS011;36272;59.400;17.982;2023-07-24T01:55:14;7.40;;;3.47;;
50363;SDS011;36272;59.400;17.982;2023-07-24T02:00:21;4.30;;;3.25;;
50363;SDS011;36272;59.400;17.982;2023-07-24T02:05:22;6.93;;;3.30;;
50363;SDS011;36272;59.400;17.982;2023-07-24T02:10:24;7.03;;;3.72;;
50363;SDS011;36272;59.400;17.982;2023-07-24T02:15:25;5.45;;;3.42;;
50363;SDS011;36272;59.400;17.982;2023-07-24T02:20:27;7.88;;;3.30;;
50363;SDS011;36272;59.400;17.982;2023-07-24T02:25:29;5.15;;;3.40;;
50363;SDS011;36272;59.400;17.982;2023-07-24T02:30:30;6.75;;;3.40;;
50363;SDS011;36272;59.400;17.982;2023-07-24T02:35:37;5.97;;;3.40;;
50363;SDS011;36272;59.400;17.982;2023-07-24T02:40:40;4.63;;;3.38;;
50363;SDS011;36272;59.400;17.982;2023-07-24T02:45:42;6.97;;;3.63;;
50363;SDS011;36272;59.400;17.982;2023-07-24T02:50:49;6.50;;;3.53;;
50363;SDS011;36272;59.400;17.982;2023-07-24T02:55:51;8.82;;;3.70;;
50363;SDS011;36272;59.400;17.982;2023-07-24T03:01:03;8.43;;;3.72;;
50363;SDS011;36272;59.400;17.982;2023-07-24T03:06:09;5.78;;;3.72;;
50363;SDS011;36272;59.400;17.982;2023-07-24T03:11:11;7.72;;;3.80;;
50363;SDS011;36272;59.400;17.982;2023-07-24T03:16:12;7.07;;;3.63;;
50363;SDS011;36272;59.400;17.982;2023-07-24T03:21:14;7.30;;;3.85;;
50363;SDS011;36272;59.400;17.982;2023-07-24T03:26:16;6.50;;;3.85;;
50363;SDS011;36272;59.400;17.982;2023-07-24T03:31:17;8.88;;;3.95;;
50363;SDS011;36272;59.400;17.982;2023-07-24T03:36:19;7.55;;;3.75;;
50363;SDS011;36272;59.400;17.982;2023-07-24T03:41:21;8.25;;;4.22;;
50363;SDS011;36272;59.400;17.982;2023-07-24T03:46:22;7.78;;;4.03;;
50363;SDS011;36272;59.400;17.982;2023-07-24T03:51:24;13.35;;;4.70;;
50363;SDS011;36272;59.400;17.982;2023-07-24T03:56:26;12.70;;;4.80;;
50363;SDS011;36272;59.400;17.982;2023-07-24T04:01:27;11.27;;;4.63;;
50363;SDS011;36272;59.400;17.982;2023-07-24T04:06:29;9.90;;;4.75;;
50363;SDS011;36272;59.400;17.982;2023-07-24T04:11:31;10.57;;;4.75;;
50363;SDS011;36272;59.400;17.982;2023-07-24T04:16:32;17.10;;;6.28;;
50363;SDS011;36272;59.400;17.982;2023-07-24T04:21:34;14.38;;;6.45;;
50363;SDS011;36272;59.400;17.982;2023-07-24T04:26:36;9.07;;;6.10;;
50363;SDS011;36272;59.400;17.982;2023-07-24T04:31:37;11.70;;;6.55;;
50363;SDS011;36272;59.400;17.982;2023-07-24T04:36:39;11.23;;;5.80;;
50363;SDS011;36272;59.400;17.982;2023-07-24T04:41:41;9.10;;;5.38;;
50363;SDS011;36272;59.400;17.982;2023-07-24T04:46:42;11.65;;;5.00;;
50363;SDS011;36272;59.400;17.982;2023-07-24T04:51:44;10.25;;;5.80;;
50363;SDS011;36272;59.400;17.982;2023-07-24T04:56:45;23.25;;;10.52;;
50363;SDS011;36272;59.400;17.982;2023-07-24T05:01:52;14.73;;;7.80;;
50363;SDS011;36272;59.400;17.982;2023-07-24T05:06:54;15.63;;;10.18;;
50363;SDS011;36272;59.400;17.982;2023-07-24T05:11:55;15.55;;;7.80;;
50363;SDS011;36272;59.400;17.982;2023-07-24T05:16:57;15.85;;;7.53;;
50363;SDS011;36272;59.400;17.982;2023-07-24T05:21:58;16.67;;;8.38;;
50363;SDS011;36272;59.400;17.982;2023-07-24T05:27:00;15.05;;;8.32;;
50363;SDS011;36272;59.400;17.982;2023-07-24T05:32:02;14.85;;;7.28;;
50363;SDS011;36272;59.400;17.982;2023-07-24T05:37:04;9.13;;;6.43;;
50363;SDS011;36272;59.400;17.982;2023-07-24T05:42:06;11.48;;;6.20;;
50363;SDS011;36272;59.400;17.982;2023-07-24T05:47:08;7.95;;;4.95;;
50363;SDS011;36272;59.400;17.982;2023-07-24T05:52:09;9.65;;;4.85;;
50363;SDS011;36272;59.400;17.982;2023-07-24T05:57:11;10.63;;;5.32;;
50363;SDS011;36272;59.400;17.982;2023-07-24T06:02:14;9.95;;;4.57;;
50363;SDS011;36272;59.400;17.982;2023-07-24T06:07:18;8.88;;;4.47;;
50363;SDS011;36272;59.400;17.982;2023-07-24T06:12:20;7.65;;;3.75;;
50363;SDS011;36272;59.400;17.982;2023-07-24T06:17:22;6.10;;;3.50;;
50363;SDS011;36272;59.400;17.982;2023-07-24T06:22:25;11.63;;;3.60;;
50363;SDS011;36272;59.400;17.982;2023-07-24T06:27:26;7.45;;;3.50;;
50363;SDS011;36272;59.400;17.982;2023-07-24T06:32:28;6.45;;;3.45;;
50363;SDS011;36272;59.400;17.982;2023-07-24T06:37:29;8.05;;;3.10;;
50363;SDS011;36272;59.400;17.982;2023-07-24T06:42:31;4.40;;;2.97;;
50363;SDS011;36272;59.400;17.982;2023-07-24T06:47:33;5.95;;;2.88;;
50363;SDS011;36272;59.400;17.982;2023-07-24T06:52:34;6.78;;;3.10;;
50363;SDS011;36272;59.400;17.982;2023-07-24T06:57:36;6.38;;;2.85;;
50363;SDS011;36272;59.400;17.982;2023-07-24T07:02:38;8.68;;;3.20;;
50363;SDS011;36272;59.400;17.982;2023-07-24T07:07:39;6.47;;;2.90;;
50363;SDS011;36272;59.400;17.982;2023-07-24T07:12:41;4.32;;;2.58;;
50363;SDS011;36272;59.400;17.982;2023-07-24T07:17:43;8.05;;;2.60;;
50363;SDS011;36272;59.400;17.982;2023-07-24T07:22:44;5.80;;;3.03;;
50363;SDS011;36272;59.400;17.982;2023-07-24T07:27:46;4.65;;;2.60;;
50363;SDS011;36272;59.400;17.982;2023-07-24T07:32:48;4.63;;;2.22;;
50363;SDS011;36272;59.400;17.982;2023-07-24T07:37:51;4.88;;;2.05;;
50363;SDS011;36272;59.400;17.982;2023-07-24T07:42:53;2.47;;;1.65;;
50363;SDS011;36272;59.400;17.982;2023-07-24T07:47:55;1.98;;;1.52;;
50363;SDS011;36272;59.400;17.982;2023-07-24T07:52:57;2.80;;;1.90;;
50363;SDS011;36272;59.400;17.982;2023-07-24T07:57:59;4.60;;;1.70;;
50363;SDS011;36272;59.400;17.982;2023-07-24T08:03:00;4.32;;;1.80;;
50363;SDS011;36272;59.400;17.982;2023-07-24T08:08:02;3.05;;;1.85;;
50363;SDS011;36272;59.400;17.982;2023-07-24T08:13:09;3.58;;;2.13;;
50363;SDS011;36272;59.400;17.982;2023-07-24T08:18:10;4.40;;;2.15;;
50363;SDS011;36272;59.400;17.982;2023-07-24T08:23:12;4.00;;;1.90;;
50363;SDS011;36272;59.400;17.982;2023-07-24T08:28:13;2.20;;;1.58;;
50363;SDS011;36272;59.400;17.982;2023-07-24T08:33:15;4.30;;;1.63;;
50363;SDS011;36272;59.400;17.982;2023-07-24T08:38:17;4.25;;;1.52;;
50363;SDS011;36272;59.400;17.982;2023-07-24T08:43:18;4.10;;;1.50;;
50363;SDS011;36272;59.400;17.982;2023-07-24T08:48:20;2.67;;;1.90;;
50363;SDS011;36272;59.400;17.982;2023-07-24T08:53:23;2.88;;;1.52;;
50363;SDS011;36272;59.400;17.982;2023-07-24T08:58:25;3.05;;;1.48;;
50363;SDS011;36272;59.400;17.982;2023-07-24T09:03:27;3.45;;;1.70;;
50363;SDS011;36272;59.400;17.982;2023-07-24T09:13:38;6.75;;;2.00;;
50363;SDS011;36272;59.400;17.982;2023-07-24T09:18:43;1.42;;;1.02;;
50363;SDS011;36272;59.400;17.982;2023-07-24T09:23:44;1.38;;;1.00;;
50363;SDS011;36272;59.400;17.982;2023-07-24T09:28:53;2.22;;;1.40;;
50363;SDS011;36272;59.400;17.982;2023-07-24T09:33:55;2.28;;;1.17;;
50363;SDS011;36272;59.400;17.982;2023-07-24T09:39:00;2.70;;;1.20;;
50363;SDS011;36272;59.400;17.982;2023-07-24T09:44:02;2.22;;;1.30;;
50363;SDS011;36272;59.400;17.982;2023-07-24T09:49:04;4.20;;;1.30;;
50363;SDS011;36272;59.400;17.982;2023-07-24T09:54:08;1.65;;;1.23;;
50363;SDS011;36272;59.400;17.982;2023-07-24T09:59:24;6.60;;;1.25;;
50363;SDS011;36272;59.400;17.982;2023-07-24T10:04:31;2.53;;;1.52;;
50363;SDS011;36272;59.400;17.982;2023-07-24T10:09:33;2.30;;;1.13;;
50363;SDS011;36272;59.400;17.982;2023-07-24T10:14:39;2.67;;;1.13;;
50363;SDS011;36272;59.400;17.982;2023-07-24T10:19:42;2.17;;;1.23;;
50363;SDS011;36272;59.400;17.982;2023-07-24T10:24:47;2.58;;;1.50;;
50363;SDS011;36272;59.400;17.982;2023-07-24T10:29:57;4.15;;;1.58;;
50363;SDS011;36272;59.400;17.982;2023-07-24T10:40:18;2.22;;;1.40;;
50363;SDS011;36272;59.400;17.982;2023-07-24T10:45:22;2.58;;;1.63;;
50363;SDS011;36272;59.400;17.982;2023-07-24T10:50:35;2.78;;;1.40;;
50363;SDS011;36272;59.400;17.982;2023-07-24T10:55:38;2.65;;;1.45;;
50363;SDS011;36272;59.400;17.982;2023-07-24T11:00:40;3.20;;;1.60;;
50363;SDS011;36272;59.400;17.982;2023-07-24T11:05:44;2.50;;;1.35;;
50363;SDS011;36272;59.400;17.982;2023-07-24T11:10:47;2.17;;;1.47;;
50363;SDS011;36272;59.400;17.982;2023-07-24T11:15:50;2.08;;;1.40;;
50363;SDS011;36272;59.400;17.982;2023-07-24T11:20:53;1.85;;;1.35;;
50363;SDS011;36272;59.400;17.982;2023-07-24T11:25:56;5.70;;;1.27;;
50363;SDS011;36272;59.400;17.982;2023-07-24T11:31:02;3.30;;;1.75;;
50363;SDS011;36272;59.400;17.982;2023-07-24T11:36:03;3.75;;;1.50;;
50363;SDS011;36272;59.400;17.982;2023-07-24T11:41:07;2.13;;;1.23;;
50363;SDS011;36272;59.400;17.982;2023-07-24T11:46:10;2.47;;;1.20;;
50363;SDS011;36272;59.400;17.982;2023-07-24T11:51:12;2.60;;;1.05;;
50363;SDS011;36272;59.400;17.982;2023-07-24T11:56:14;1.10;;;0.98;;
50363;SDS011;36272;59.400;17.982;2023-07-24T12:01:17;2.45;;;1.20;;
50363;SDS011;36272;59.400;17.982;2023-07-24T12:06:18;1.92;;;1.40;;
50363;SDS011;36272;59.400;17.982;2023-07-24T12:11:21;2.05;;;1.00;;
50363;SDS011;36272;59.400;17.982;2023-07-24T12:16:23;1.92;;;1.08;;
50363;SDS011;36272;59.400;17.982;2023-07-24T12:21:25;1.13;;;0.73;;
50363;SDS011;36272;59.400;17.982;2023-07-24T12:26:27;3.97;;;1.00;;
50363;SDS011;36272;59.400;17.982;2023-07-24T12:31:28;1.57;;;1.10;;
50363;SDS011;36272;59.400;17.982;2023-07-24T12:36:30;1.40;;;1.17;;
50363;SDS011;36272;59.400;17.982;2023-07-24T12:41:32;1.45;;;0.77;;
50363;SDS011;36272;59.400;17.982;2023-07-24T12:46:33;1.30;;;0.90;;
50363;SDS011;36272;59.400;17.982;2023-07-24T12:51:35;2.07;;;0.97;;
50363;SDS011;36272;59.400;17.982;2023-07-24T12:56:36;1.05;;;0.50;;
50363;SDS011;36272;59.400;17.982;2023-07-24T13:06:40;0.90;;;0.50;;
50363;SDS011;36272;59.400;17.982;2023-07-24T13:11:41;1.17;;;0.85;;
50363;SDS011;36272;59.400;17.982;2023-07-24T13:21:44;0.87;;;0.77;;
50363;SDS011;36272;59.400;17.982;2023-07-24T13:26:48;2.47;;;0.45;;
50363;SDS011;36272;59.400;17.982;2023-07-24T13:31:50;1.42;;;0.70;;
50363;SDS011;36272;59.400;17.982;2023-07-24T13:36:53;0.63;;;0.60;;
50363;SDS011;36272;59.400;17.982;2023-07-24T13:41:54;0.70;;;0.60;;
50363;SDS011;36272;59.400;17.982;2023-07-24T13:46:57;1.50;;;0.60;;
50363;SDS011;36272;59.400;17.982;2023-07-24T13:51:58;2.15;;;1.95;;
50363;SDS011;36272;59.400;17.982;2023-07-24T13:57:01;1.10;;;0.50;;
50363;SDS011;36272;59.400;17.982;2023-07-24T14:02:03;0.40;;;0.40;;
50363;SDS011;36272;59.400;17.982;2023-07-24T14:07:05;1.50;;;0.60;;
50363;SDS011;36272;59.400;17.982;2023-07-24T14:12:06;0.63;;;0.63;;
50363;SDS011;36272;59.400;17.982;2023-07-24T14:17:08;1.77;;;0.70;;
50363;SDS011;36272;59.400;17.982;2023-07-24T14:22:10;0.70;;;0.43;;
50363;SDS011;36272;59.400;17.982;2023-07-24T14:27:12;0.82;;;0.50;;
50363;SDS011;36272;59.400;17.982;2023-07-24T14:32:15;1.50;;;0.80;;
50363;SDS011;36272;59.400;17.982;2023-07-24T14:37:16;1.90;;;0.63;;
50363;SDS011;36272;59.400;17.982;2023-07-24T14:42:18;0.77;;;0.57;;
50363;SDS011;36272;59.400;17.982;2023-07-24T14:47:20;3.30;;;1.05;;
50363;SDS011;36272;59.400;17.982;2023-07-24T14:52:21;0.73;;;0.60;;
50363;SDS011;36272;59.400;17.982;2023-07-24T14:57:24;1.45;;;0.75;;
50363;SDS011;36272;59.400;17.982;2023-07-24T15:02:25;0.93;;;0.70;;
50363;SDS011;36272;59.400;17.982;2023-07-24T15:07:27;1.75;;;0.70;;
50363;SDS011;36272;59.400;17.982;2023-07-24T15:12:34;0.80;;;0.50;;
50363;SDS011;36272;59.400;17.982;2023-07-24T15:17:35;0.73;;;0.55;;
50363;SDS011;36272;59.400;17.982;2023-07-24T15:22:37;1.48;;;0.52;;
50363;SDS011;36272;59.400;17.982;2023-07-24T15:27:39;0.55;;;0.55;;
50363;SDS011;36272;59.400;17.982;2023-07-24T15:32:41;2.30;;;1.00;;
50363;SDS011;36272;59.400;17.982;2023-07-24T15:37:42;2.67;;;0.60;;
50363;SDS011;36272;59.400;17.982;2023-07-24T15:42:48;2.05;;;0.70;;
50363;SDS011;36272;59.400;17.982;2023-07-24T15:47:49;1.17;;;0.73;;
50363;SDS011;36272;59.400;17.982;2023-07-24T15:52:51;0.88;;;0.70;;
50363;SDS011;36272;59.400;17.982;2023-07-24T15:57:53;2.05;;;1.25;;
50363;SDS011;36272;59.400;17.982;2023-07-24T16:02:55;1.17;;;0.75;;
50363;SDS011;36272;59.400;17.982;2023-07-24T16:07:57;2.05;;;1.05;;
50363;SDS011;36272;59.400;17.982;2023-07-24T16:13:04;1.63;;;1.00;;
50363;SDS011;36272;59.400;17.982;2023-07-24T16:18:05;3.03;;;1.38;;
50363;SDS011;36272;59.400;17.982;2023-07-24T16:23:07;1.42;;;0.90;;
50363;SDS011;36272;59.400;17.982;2023-07-24T16:28:09;2.60;;;0.90;;
50363;SDS011;36272;59.400;17.982;2023-07-24T16:33:10;5.78;;;2.95;;
50363;SDS011;36272;59.400;17.982;2023-07-24T16:38:12;1.90;;;0.90;;
50363;SDS011;36272;59.400;17.982;2023-07-24T16:43:16;4.88;;;1.45;;
50363;SDS011;36272;59.400;17.982;2023-07-24T16:48:18;2.30;;;1.70;;
50363;SDS011;36272;59.400;17.982;2023-07-24T16:53:19;1.75;;;1.20;;
50363;SDS011;36272;59.400;17.982;2023-07-24T16:58:21;1.88;;;1.17;;
50363;SDS011;36272;59.400;17.982;2023-07-24T17:03:22;2.58;;;1.63;;
50363;SDS011;36272;59.400;17.982;2023-07-24T17:08:24;1.48;;;1.05;;
50363;SDS011;36272;59.400;17.982;2023-07-24T17:13:29;2.42;;;1.27;;
50363;SDS011;36272;59.400;17.982;2023-07-24T17:18:34;1.90;;;1.30;;
50363;SDS011;36272;59.400;17.982;2023-07-24T17:23:35;3.13;;;1.80;;
50363;SDS011;36272;59.400;17.982;2023-07-24T17:28:37;2.40;;;1.38;;
50363;SDS011;36272;59.400;17.982;2023-07-24T17:33:38;2.55;;;1.20;;
50363;SDS011;36272;59.400;17.982;2023-07-24T17:38:40;3.38;;;1.60;;
50363;SDS011;36272;59.400;17.982;2023-07-24T17:43:42;1.63;;;1.45;;
50363;SDS011;36272;59.400;17.982;2023-07-24T17:48:43;2.30;;;1.38;;
50363;SDS011;36272;59.400;17.982;2023-07-24T17:53:46;3.47;;;1.35;;
50363;SDS011;36272;59.400;17.982;2023-07-24T17:58:47;2.25;;;1.42;;
50363;SDS011;36272;59.400;17.982;2023-07-24T18:03:49;2.55;;;1.63;;
50363;SDS011;36272;59.400;17.982;2023-07-24T18:08:50;2.15;;;1.33;;
50363;SDS011;36272;59.400;17.982;2023-07-24T18:13:57;3.40;;;1.75;;
50363;SDS011;36272;59.400;17.982;2023-07-24T18:18:59;4.70;;;1.67;;
50363;SDS011;36272;59.400;17.982;2023-07-24T18:24:00;2.28;;;1.05;;
50363;SDS011;36272;59.400;17.982;2023-07-24T18:29:06;1.98;;;1.23;;
50363;SDS011;36272;59.400;17.982;2023-07-24T18:34:07;2.75;;;1.20;;
50363;SDS011;36272;59.400;17.982;2023-07-24T18:39:09;4.05;;;1.08;;
50363;SDS011;36272;59.400;17.982;2023-07-24T18:44:10;1.63;;;0.90;;
50363;SDS011;36272;59.400;17.982;2023-07-24T18:49:12;3.63;;;1.50;;
50363;SDS011;36272;59.400;17.982;2023-07-24T18:54:14;4.85;;;1.00;;
50363;SDS011;36272;59.400;17.982;2023-07-24T18:59:15;4.38;;;1.00;;
50363;SDS011;36272;59.400;17.982;2023-07-24T19:04:17;1.48;;;0.90;;
50363;SDS011;36272;59.400;17.982;2023-07-24T19:09:19;2.50;;;1.00;;
50363;SDS011;36272;59.400;17.982;2023-07-24T19:14:20;1.83;;;1.10;;
50363;SDS011;36272;59.400;17.982;2023-07-24T19:19:22;2.00;;;1.05;;
50363;SDS011;36272;59.400;17.982;2023-07-24T19:24:24;2.85;;;1.05;;
50363;SDS011;36272;59.400;17.982;2023-07-24T19:29:25;2.75;;;1.20;;
50363;SDS011;36272;59.400;17.982;2023-07-24T19:34:27;3.15;;;1.40;;
50363;SDS011;36272;59.400;17.982;2023-07-24T19:39:30;3.13;;;1.50;;
50363;SDS011;36272;59.400;17.982;2023-07-24T19:44:32;1.88;;;1.50;;
50363;SDS011;36272;59.400;17.982;2023-07-24T19:49:40;2.42;;;1.40;;
50363;SDS011;36272;59.400;17.982;2023-07-24T19:54:43;3.45;;;1.55;;
50363;SDS011;36272;59.400;17.982;2023-07-24T19:59:45;1.67;;;1.30;;
50363;SDS011;36272;59.400;17.982;2023-07-24T20:04:47;3.90;;;1.85;;
50363;SDS011;36272;59.400;17.982;2023-07-24T20:09:49;4.18;;;1.88;;
50363;SDS011;36272;59.400;17.982;2023-07-24T20:14:53;3.00;;;1.80;;
50363;SDS011;36272;59.400;17.982;2023-07-24T20:19:55;3.03;;;2.40;;
50363;SDS011;36272;59.400;17.982;2023-07-24T20:24:56;5.72;;;2.40;;
50363;SDS011;36272;59.400;17.982;2023-07-24T20:29:58;6.28;;;2.25;;
50363;SDS011;36272;59.400;17.982;2023-07-24T20:35:01;4.20;;;2.50;;
50363;SDS011;36272;59.400;17.982;2023-07-24T20:40:03;4.68;;;2.17;;
50363;SDS011;36272;59.400;17.982;2023-07-24T20:45:05;4.65;;;2.38;;
50363;SDS011;36272;59.400;17.982;2023-07-24T20:50:08;4.97;;;2.40;;
50363;SDS011;36272;59.400;17.982;2023-07-24T20:55:09;5.10;;;2.90;;
50363;SDS011;36272;59.400;17.982;2023-07-24T21:00:12;4.10;;;2.47;;
50363;SDS011;36272;59.400;17.982;2023-07-24T21:05:14;5.63;;;2.65;;
50363;SDS011;36272;59.400;17.982;2023-07-24T21:10:16;3.30;;;2.88;;
50363;SDS011;36272;59.400;17.982;2023-07-24T21:15:17;6.10;;;3.42;;
50363;SDS011;36272;59.400;17.982;2023-07-24T21:20:19;5.55;;;3.63;;
50363;SDS011;36272;59.400;17.982;2023-07-24T21:25:21;5.53;;;3.42;;
50363;SDS011;36272;59.400;17.982;2023-07-24T21:30:22;5.15;;;3.33;;
50363;SDS011;36272;59.400;17.982;2023-07-24T21:35:24;5.43;;;3.15;;
50363;SDS011;36272;59.400;17.982;2023-07-24T21:40:26;7.20;;;3.25;;
50363;SDS011;36272;59.400;17.982;2023-07-24T21:45:27;11.45;;;4.13;;
50363;SDS011;36272;59.400;17.982;2023-07-24T21:50:29;5.72;;;4.03;;
50363;SDS011;36272;59.400;17.982;2023-07-24T21:55:30;7.25;;;3.90;;
50363;SDS011;36272;59.400;17.982;2023-07-24T22:00:33;7.78;;;3.90;;
50363;SDS011;36272;59.400;17.982;2023-07-24T22:05:36;10.02;;;4.45;;
50363;SDS011;36272;59.400;17.982;2023-07-24T22:10:37;7.68;;;4.68;;
50363;SDS011;36272;59.400;17.982;2023-07-24T22:15:39;13.73;;;7.80;;
50363;SDS011;36272;59.400;17.982;2023-07-24T22:20:41;13.73;;;7.95;;
50363;SDS011;36272;59.400;17.982;2023-07-24T22:25:42;15.40;;;9.15;;
50363;SDS011;36272;59.400;17.982;2023-07-24T22:30:44;14.68;;;7.30;;
50363;SDS011;36272;59.400;17.982;2023-07-24T22:35:46;13.57;;;7.55;;
50363;SDS011;36272;59.400;17.982;2023-07-24T22:40:48;14.48;;;8.02;;
50363;SDS011;36272;59.400;17.982;2023-07-24T22:45:50;17.00;;;9.30;;
50363;SDS011;36272;59.400;17.982;2023-07-24T22:50:51;18.27;;;9.30;;
50363;SDS011;36272;59.400;17.982;2023-07-24T22:55:53;12.52;;;8.05;;
50363;SDS011;36272;59.400;17.982;2023-07-24T23:00:55;24.00;;;9.35;;
50363;SDS011;36272;59.400;17.982;2023-07-24T23:05:56;21.13;;;10.60;;
50363;SDS011;36272;59.400;17.982;2023-07-24T23:10:58;19.50;;;10.00;;
50363;SDS011;36272;59.400;17.982;2023-07-24T23:16:00;15.57;;;10.25;;
50363;SDS011;36272;59.400;17.982;2023-07-24T23:21:06;13.98;;;9.32;;
50363;SDS011;36272;59.400;17.982;2023-07-24T23:26:08;17.35;;;9.65;;
50363;SDS011;36272;59.400;17.982;2023-07-24T23:31:10;18.25;;;11.43;;
50363;SDS011;36272;59.400;17.982;2023-07-24T23:36:11;18.90;;;10.38;;
50363;SDS011;36272;59.400;17.982;2023-07-24T23:41:13;17.13;;;11.00;;
50363;SDS011;36272;59.400;17.982;2023-07-24T23:46:15;14.10;;;9.88;;
50363;SDS011;36272;59.400;17.982;2023-07-24T23:51:18;14.20;;;9.75;;
50363;SDS011;36272;59.400;17.982;2023-07-24T23:56:20;17.92;;;9.80;;
